Time;durP1;ratioP1;P1;durP2;ratioP2;P2;SDS_P1;SDS_P2;PMS_P1;PMS_P2;Temp;Humidity;BMP_temperature;BMP_pressure;BME280_temperature;BME280_humidity;BME280_pressure;Samples;Min_cycle;Max_cycle;Signal;HPM_P1;HPM_P2
2024/01/18 00:00:33;;;;;;;15.00;8.50;;;;;;;-1.47;94.63;99256.47;4956514;28;20085;-89
2024/01/18 00:02:59;;;;;;;17.07;8.23;;;;;;;-1.49;94.60;99264.09;4975126;28;21394;-89
2024/01/18 00:05:24;;;;;;;16.93;8.73;;;;;;;-1.45;95.02;99275.16;4967290;28;20031;-88
2024/01/18 00:07:50;;;;;;;16.37;8.43;;;;;;;-1.47;94.48;99270.03;4971918;28;20023;-88
2024/01/18 00:10:15;;;;;;;14.80;8.23;;;;;;;-1.48;94.05;99270.06;4972233;28;20033;-89
2024/01/18 00:12:42;;;;;;;16.77;8.33;;;;;;;-1.49;94.80;99279.41;4973113;28;20023;-88
2024/01/18 00:15:08;;;;;;;15.33;8.47;;;;;;;-1.51;94.88;99275.16;4952249;28;20361;-87
2024/01/18 00:17:33;;;;;;;17.17;8.73;;;;;;;-1.52;94.76;99274.28;4956378;28;20477;-88
2024/01/18 00:19:58;;;;;;;15.10;8.30;;;;;;;-1.53;95.23;99281.13;4966458;28;20081;-88
2024/01/18 00:22:24;;;;;;;15.53;8.60;;;;;;;-1.53;95.31;99293.00;4972753;28;20448;-89
2024/01/18 00:24:49;;;;;;;15.93;8.30;;;;;;;-1.53;94.51;99309.16;4972836;28;20508;-88
2024/01/18 00:27:14;;;;;;;16.97;8.10;;;;;;;-1.52;95.44;99302.34;4967975;28;20026;-88
2024/01/18 00:29:40;;;;;;;14.27;8.13;;;;;;;-1.50;95.37;99300.66;4968186;28;20023;-88
2024/01/18 00:32:05;;;;;;;15.77;8.50;;;;;;;-1.50;95.52;99308.31;4971589;28;20027;-88
2024/01/18 00:34:30;;;;;;;17.27;8.47;;;;;;;-1.49;95.05;99304.06;4949635;28;20528;-89
2024/01/18 00:36:56;;;;;;;15.23;8.93;;;;;;;-1.49;95.10;99309.16;4972228;28;20596;-88
2024/01/18 00:39:22;;;;;;;15.97;8.90;;;;;;;-1.49;94.10;99306.63;4949367;28;20024;-89
2024/01/18 00:41:48;;;;;;;17.33;8.97;;;;;;;-1.50;94.87;99303.19;4971226;28;20031;-89
2024/01/18 00:44:14;;;;;;;14.20;8.40;;;;;;;-1.49;95.13;99310.00;4956676;28;20030;-89
2024/01/18 00:46:39;;;;;;;16.17;8.20;;;;;;;-1.48;95.07;99313.41;4956167;28;20042;-89
2024/01/18 00:49:05;;;;;;;14.80;8.27;;;;;;;-1.50;94.48;99315.13;4953445;28;20043;-88
2024/01/18 00:51:30;;;;;;;15.40;8.57;;;;;;;-1.51;94.52;99316.81;4937270;29;20023;-88
2024/01/18 00:53:56;;;;;;;14.63;8.03;;;;;;;-1.50;94.90;99320.22;4963342;28;20023;-88
2024/01/18 00:56:21;;;;;;;15.00;7.83;;;;;;;-1.49;95.08;99325.31;4955262;28;20046;-88
2024/01/18 00:58:47;;;;;;;14.47;7.83;;;;;;;-1.50;94.29;99328.72;4948748;28;20063;-88
2024/01/18 01:01:12;;;;;;;18.23;9.03;;;;;;;-1.51;94.75;99327.00;4959100;28;20030;-89
2024/01/18 01:03:38;;;;;;;16.00;8.40;;;;;;;-1.50;95.45;99332.97;4954587;28;20065;-88
2024/01/18 01:06:04;;;;;;;14.00;8.40;;;;;;;-1.52;94.96;99345.72;4952846;28;20019;-88
2024/01/18 01:08:29;;;;;;;15.87;7.80;;;;;;;-1.54;95.15;99334.69;4955664;28;20038;-88
2024/01/18 01:10:55;;;;;;;14.80;8.20;;;;;;;-1.55;95.63;99338.09;4953849;28;20031;-88
2024/01/18 01:13:20;;;;;;;16.17;8.50;;;;;;;-1.54;95.16;99339.78;4953924;28;20026;-89
2024/01/18 01:15:46;;;;;;;16.77;8.13;;;;;;;-1.54;95.04;99345.72;4954187;28;20027;-88
2024/01/18 01:18:12;;;;;;;13.03;7.97;;;;;;;-1.53;95.93;99349.97;4954622;28;20078;-88
2024/01/18 01:20:37;;;;;;;16.27;8.40;;;;;;;-1.52;95.17;99345.72;4953318;28;20031;-88
2024/01/18 01:23:03;;;;;;;15.90;9.00;;;;;;;-1.52;94.95;99355.91;4953166;28;20030;-88
2024/01/18 01:25:29;;;;;;;14.53;8.07;;;;;;;-1.55;94.83;99348.28;4953216;28;20019;-88
2024/01/18 01:27:54;;;;;;;13.93;7.87;;;;;;;-1.55;95.28;99345.75;4954866;28;20123;-88
2024/01/18 01:30:19;;;;;;;15.27;8.27;;;;;;;-1.55;94.78;99346.56;4955187;28;20106;-88
2024/01/18 01:32:44;;;;;;;16.17;8.73;;;;;;;-1.56;95.22;99349.13;4953220;28;20110;-88
2024/01/18 01:35:11;;;;;;;16.30;8.97;;;;;;;-1.60;95.93;99347.44;4954545;28;20440;-88
2024/01/18 01:37:37;;;;;;;16.43;8.77;;;;;;;-1.60;95.46;99352.53;4952932;28;20046;-89
2024/01/18 01:40:04;;;;;;;14.53;7.97;;;;;;;-1.60;95.80;99347.44;4953756;28;20170;-89
2024/01/18 01:42:30;;;;;;;14.13;7.87;;;;;;;-1.59;95.65;99349.97;4952629;28;20051;-88
2024/01/18 01:44:55;;;;;;;16.50;8.90;;;;;;;-1.61;95.66;99351.66;4949564;28;20765;-89
2024/01/18 01:47:20;;;;;;;15.30;8.37;;;;;;;-1.61;95.83;99364.41;4944084;29;20665;-88
2024/01/18 01:49:46;;;;;;;15.60;8.83;;;;;;;-1.62;95.88;99366.97;4941426;29;20480;-88
2024/01/18 01:52:12;;;;;;;15.40;8.90;;;;;;;-1.64;95.90;99366.13;4943959;29;20481;-88
2024/01/18 01:54:38;;;;;;;15.57;8.27;;;;;;;-1.65;96.11;99372.06;4950249;29;20468;-88
2024/01/18 01:57:04;;;;;;;14.90;7.67;;;;;;;-1.64;95.59;99376.31;4934980;28;20400;-88
2024/01/18 01:59:31;;;;;;;14.13;8.37;;;;;;;-1.66;96.12;99380.56;4952805;28;20034;-89
2024/01/18 02:01:57;;;;;;;14.27;7.83;;;;;;;-1.68;96.59;99378.88;4951826;28;20023;-88
2024/01/18 02:04:23;;;;;;;13.07;7.90;;;;;;;-1.65;96.99;99377.16;4951203;28;20042;-88
2024/01/18 02:06:51;;;;;;;13.60;7.80;;;;;;;-1.65;96.79;99378.03;4952478;28;20496;-88
2024/01/18 02:09:18;;;;;;;17.30;8.43;;;;;;;-1.63;96.43;99378.91;4952799;28;20114;-88
2024/01/18 02:11:43;;;;;;;15.47;8.70;;;;;;;-1.63;95.99;99378.03;4951148;28;20503;-88
2024/01/18 02:14:09;;;;;;;15.47;8.03;;;;;;;-1.64;95.75;99376.31;4950446;28;20027;-88
2024/01/18 02:16:34;;;;;;;15.43;8.47;;;;;;;-1.64;95.95;99382.28;4965374;28;20039;-87
2024/01/18 02:19:02;;;;;;;15.77;9.03;;;;;;;-1.65;96.35;99379.72;4949683;28;20106;-88
2024/01/18 02:21:28;;;;;;;15.97;8.67;;;;;;;-1.68;96.18;99383.97;4946583;28;20043;-88
2024/01/18 02:24:09;;;;;;;15.63;8.70;;;;;;;-1.68;96.49;99386.50;4950855;29;20030;-88
2024/01/18 02:26:34;;;;;;;15.73;8.68;;;;;;;-1.66;95.76;99388.22;4949759;28;20167;-89
2024/01/18 02:29:00;;;;;;;13.83;8.23;;;;;;;-1.69;96.13;99384.81;4953139;28;20113;-89
2024/01/18 02:31:25;;;;;;;16.13;8.53;;;;;;;-1.68;96.74;99381.41;4951180;28;20031;-88
2024/01/18 02:33:51;;;;;;;14.80;8.90;;;;;;;-1.69;97.04;99374.63;4936038;29;20072;-89
2024/01/18 02:36:19;;;;;;;16.10;9.13;;;;;;;-1.70;96.83;99378.00;4934342;28;20043;-88
2024/01/18 02:38:44;;;;;;;14.93;8.37;;;;;;;-1.72;96.79;99369.53;4949830;29;20027;-88
2024/01/18 02:41:10;;;;;;;14.23;8.33;;;;;;;-1.74;96.90;99378.88;4948343;28;20038;-88
2024/01/18 02:43:35;;;;;;;14.27;8.43;;;;;;;-1.77;97.02;99373.78;4951012;28;20049;-88
2024/01/18 02:46:01;;;;;;;15.97;8.70;;;;;;;-1.78;97.08;99379.72;4967882;28;20100;-88
2024/01/18 02:48:26;;;;;;;16.57;8.20;;;;;;;-1.78;97.02;99384.81;4969727;28;20042;-89
2024/01/18 02:50:51;;;;;;;15.13;8.80;;;;;;;-1.79;96.81;99383.13;4965619;28;20039;-88
2024/01/18 02:53:20;;;;;;;15.63;8.60;;;;;;;-1.80;96.94;99395.88;4968378;28;20030;-89
2024/01/18 02:55:45;;;;;;;16.27;8.43;;;;;;;-1.81;96.51;99400.09;4951335;28;20038;-88
2024/01/18 02:58:10;;;;;;;15.67;8.50;;;;;;;-1.83;97.17;99395.03;4969459;28;20030;-87
2024/01/18 03:00:38;;;;;;;16.97;9.70;;;;;;;-1.84;97.59;99397.53;4965534;28;20027;-89
2024/01/18 03:03:03;;;;;;;15.77;8.80;;;;;;;-1.84;97.65;99395.00;4968398;28;20033;-88
2024/01/18 03:05:29;;;;;;;15.03;8.40;;;;;;;-1.83;97.56;99391.59;4968013;28;20384;-88
2024/01/18 03:07:54;;;;;;;13.57;8.47;;;;;;;-1.83;97.25;99391.59;4966412;28;20066;-88
2024/01/18 03:10:21;;;;;;;13.67;8.10;;;;;;;-1.85;97.72;99396.72;4968122;28;20145;-88
2024/01/18 03:12:47;;;;;;;15.97;8.37;;;;;;;-1.85;97.80;99395.84;4967592;28;20431;-88
2024/01/18 03:15:12;;;;;;;15.80;8.10;;;;;;;-1.87;97.98;99393.31;4966703;28;20110;-90
2024/01/18 03:17:37;;;;;;;16.33;8.77;;;;;;;-1.88;98.02;99399.25;4967775;28;20106;-89
2024/01/18 03:20:07;;;;;;;15.27;8.53;;;;;;;-1.89;97.88;99397.53;4969204;28;20033;-88
2024/01/18 03:22:33;;;;;;;16.00;8.90;;;;;;;-1.90;98.04;99400.09;4951124;28;20026;-89
2024/01/18 03:24:59;;;;;;;14.93;8.57;;;;;;;-1.90;97.90;99405.19;4968894;28;20423;-88
2024/01/18 03:27:24;;;;;;;14.90;8.43;;;;;;;-1.90;98.14;99400.09;4968373;28;20483;-88
2024/01/18 03:29:49;;;;;;;16.57;8.93;;;;;;;-1.91;97.95;99396.69;4973163;28;20030;-89
2024/01/18 03:32:14;;;;;;;15.67;8.77;;;;;;;-1.92;97.75;99409.44;4955400;28;20031;-89
2024/01/18 03:34:40;;;;;;;13.27;7.73;;;;;;;-1.91;97.79;99413.69;4971785;28;20055;-88
2024/01/18 03:37:05;;;;;;;14.73;8.47;;;;;;;-1.94;98.64;99408.59;4972103;28;20066;-89
2024/01/18 03:39:35;;;;;;;13.47;7.90;;;;;;;-1.95;98.28;99411.97;4972199;28;20531;-89
2024/01/18 03:42:00;;;;;;;14.43;8.60;;;;;;;-2.00;97.84;99415.38;4970100;28;20187;-88
2024/01/18 03:44:26;;;;;;;15.63;8.87;;;;;;;-2.01;97.61;99418.75;4972245;28;20039;-88
2024/01/18 03:46:51;;;;;;;15.87;9.90;;;;;;;-2.05;97.56;99422.13;4955348;28;20169;-88
2024/01/18 03:49:16;;;;;;;15.00;8.50;;;;;;;-2.06;98.26;99430.66;4972831;28;20392;-88
2024/01/18 03:51:42;;;;;;;16.93;9.80;;;;;;;-2.08;97.47;99424.69;4971679;28;20484;-89
2024/01/18 03:54:07;;;;;;;16.23;9.03;;;;;;;-2.12;97.87;99415.34;4970399;28;20523;-88
2024/01/18 03:56:33;;;;;;;17.30;9.83;;;;;;;-2.13;98.19;99431.47;4971646;28;20102;-88
2024/01/18 03:58:58;;;;;;;16.03;8.97;;;;;;;-2.13;98.50;99431.47;4971537;28;20532;-88
2024/01/18 04:01:23;;;;;;;15.07;8.77;;;;;;;-2.14;98.14;99429.75;4971413;28;20026;-90
2024/01/18 04:03:49;;;;;;;16.10;8.70;;;;;;;-2.15;98.56;99428.06;4972656;28;20030;-88
2024/01/18 04:06:15;;;;;;;16.40;9.00;;;;;;;-2.16;98.31;99431.47;4971747;28;20035;-88
2024/01/18 04:08:41;;;;;;;16.20;9.00;;;;;;;-2.17;99.33;99437.41;4970257;28;20082;-88
2024/01/18 04:11:06;;;;;;;16.10;9.10;;;;;;;-2.18;99.25;99430.59;4971445;28;20031;-88
2024/01/18 04:13:32;;;;;;;16.90;9.13;;;;;;;-2.19;98.67;99439.09;4972541;28;20022;-90
2024/01/18 04:15:57;;;;;;;14.27;8.37;;;;;;;-2.22;99.00;99447.56;4972273;28;20081;-89
2024/01/18 04:18:23;;;;;;;14.93;8.23;;;;;;;-2.22;99.21;99444.19;4969653;28;20058;-89
2024/01/18 04:20:52;;;;;;;14.20;8.73;;;;;;;-2.24;98.59;99453.53;4971875;28;20019;-88
2024/01/18 04:23:18;;;;;;;13.37;7.97;;;;;;;-2.26;98.85;99442.47;4970978;28;20018;-89
2024/01/18 04:25:43;;;;;;;15.10;8.10;;;;;;;-2.27;99.90;99445.88;4971294;28;20102;-89
2024/01/18 04:28:09;;;;;;;16.10;9.00;;;;;;;-2.33;99.14;99446.69;4971620;28;20046;-89
2024/01/18 04:30:34;;;;;;;13.60;8.50;;;;;;;-2.36;99.74;99451.78;4971176;28;20019;-88
2024/01/18 04:32:59;;;;;;;14.13;7.87;;;;;;;-2.37;99.66;99465.34;4955807;28;20443;-89
2024/01/18 04:35:25;;;;;;;16.50;8.50;;;;;;;-2.41;99.09;99456.84;4970054;28;20034;-89
2024/01/18 04:37:50;;;;;;;14.83;8.37;;;;;;;-2.43;99.27;99461.09;4970202;28;20159;-88
2024/01/18 04:40:15;;;;;;;14.23;7.97;;;;;;;-2.45;98.76;99465.31;4970451;28;20538;-89
2024/01/18 04:42:41;;;;;;;13.37;7.90;;;;;;;-2.48;99.36;99462.75;4970825;28;20030;-89
2024/01/18 04:45:07;;;;;;;13.83;7.47;;;;;;;-2.50;98.94;99474.63;4965721;28;20035;-89
2024/01/18 04:47:33;;;;;;;12.23;7.77;;;;;;;-2.51;99.14;99466.13;4946824;28;20513;-89
2024/01/18 04:49:58;;;;;;;15.37;8.13;;;;;;;-2.52;99.41;99471.19;4955541;28;20113;-88
2024/01/18 04:52:23;;;;;;;12.83;7.83;;;;;;;-2.54;98.36;99472.88;4960677;28;20091;-88
2024/01/18 04:54:49;;;;;;;13.37;7.53;;;;;;;-2.59;98.50;99475.41;4947819;28;20060;-88
2024/01/18 04:57:14;;;;;;;14.80;8.83;;;;;;;-2.64;97.90;99487.25;4953728;28;20039;-88
2024/01/18 04:59:40;;;;;;;17.40;9.00;;;;;;;-2.68;98.92;99491.47;4953118;28;20031;-87
2024/01/18 05:02:06;;;;;;;14.27;8.00;;;;;;;-2.70;98.75;99498.25;4949176;28;20035;-88
2024/01/18 05:04:31;;;;;;;19.17;10.00;;;;;;;-2.71;99.29;99498.25;4954804;28;20126;-88
2024/01/18 05:06:57;;;;;;;17.97;8.90;;;;;;;-2.75;99.17;99500.78;4957787;28;20567;-88
2024/01/18 05:09:22;;;;;;;17.97;9.13;;;;;;;-2.77;100.00;99507.53;4956433;28;20810;-88
2024/01/18 05:11:47;;;;;;;15.57;8.57;;;;;;;-2.79;100.00;99495.66;4946829;28;20399;-88
2024/01/18 05:14:13;;;;;;;14.90;7.97;;;;;;;-2.79;99.52;99505.84;4947900;28;20023;-89
2024/01/18 05:16:40;;;;;;;15.73;8.13;;;;;;;-2.83;99.68;99512.63;4952193;28;20426;-89
2024/01/18 05:19:08;;;;;;;18.27;8.77;;;;;;;-2.85;99.96;99523.59;4926154;29;20039;-88
2024/01/18 05:21:33;;;;;;;15.97;7.50;;;;;;;-2.85;99.42;99518.50;4946312;28;20034;-89
2024/01/18 05:23:59;;;;;;;13.33;8.10;;;;;;;-2.89;99.50;99522.75;4945076;28;20058;-89
2024/01/18 05:26:24;;;;;;;12.20;6.90;;;;;;;-2.91;99.29;99512.56;4950726;28;20035;-89
2024/01/18 05:28:49;;;;;;;14.43;7.30;;;;;;;-2.95;98.46;99515.03;4952745;28;20074;-88
2024/01/18 05:31:15;;;;;;;15.53;8.10;;;;;;;-3.01;98.36;99517.56;4955173;28;20035;-89
2024/01/18 05:33:40;;;;;;;15.13;8.47;;;;;;;-3.06;98.06;99525.13;4933118;28;20031;-89
2024/01/18 05:36:06;;;;;;;14.30;8.43;;;;;;;-3.08;98.80;99521.75;4953062;28;20185;-88
2024/01/18 05:38:33;;;;;;;15.70;8.47;;;;;;;-3.08;98.66;99524.28;4950895;28;20481;-89
2024/01/18 05:40:59;;;;;;;14.30;8.23;;;;;;;-3.09;98.10;99525.13;4960650;28;20027;-88
2024/01/18 05:43:24;;;;;;;17.27;8.10;;;;;;;-3.13;98.99;99534.41;4955610;28;20027;-89
2024/01/18 05:45:50;;;;;;;15.17;7.97;;;;;;;-3.14;98.40;99537.78;4969218;28;20045;-89
2024/01/18 05:48:15;;;;;;;14.47;7.83;;;;;;;-3.18;98.19;99535.22;4983618;28;20039;-88
2024/01/18 05:50:42;;;;;;;16.27;8.07;;;;;;;-3.22;98.71;99547.06;4970303;28;20034;-89
2024/01/18 05:53:07;;;;;;;16.43;8.73;;;;;;;-3.26;98.62;99547.84;4983287;28;20511;-88
2024/01/18 05:55:34;;;;;;;15.33;8.20;;;;;;;-3.27;98.81;99554.66;4970832;28;20066;-89
2024/01/18 05:58:00;;;;;;;13.80;8.57;;;;;;;-3.29;99.09;99548.69;4970528;28;20031;-89
2024/01/18 06:00:25;;;;;;;14.03;7.73;;;;;;;-3.30;98.55;99554.63;4971277;28;20400;-88
2024/01/18 06:02:50;;;;;;;12.93;7.53;;;;;;;-3.30;98.25;99561.38;4974465;28;20102;-90
2024/01/18 06:05:16;;;;;;;13.20;7.70;;;;;;;-3.34;98.22;99570.66;4972731;28;20160;-88
2024/01/18 06:07:41;;;;;;;19.53;9.40;;;;;;;-3.41;98.08;99569.75;4969846;28;20045;-89
2024/01/18 06:10:07;;;;;;;14.80;8.57;;;;;;;-3.45;98.01;99572.25;4969575;28;20432;-88
2024/01/18 06:12:32;;;;;;;13.17;8.23;;;;;;;-3.46;98.28;99575.63;4969664;28;20030;-88
2024/01/18 06:14:58;;;;;;;15.20;7.40;;;;;;;-3.46;97.91;99586.66;4972606;28;20027;-88
2024/01/18 06:17:23;;;;;;;17.30;9.73;;;;;;;-3.53;98.27;99589.97;4972131;28;20046;-88
2024/01/18 06:19:48;;;;;;;17.07;8.37;;;;;;;-3.54;98.00;99586.56;4971897;28;20130;-89
2024/01/18 06:22:14;;;;;;;14.00;7.87;;;;;;;-3.56;98.49;99595.84;4955665;28;20033;-89
2024/01/18 06:24:39;;;;;;;14.70;8.20;;;;;;;-3.58;98.19;99607.69;4970594;28;20376;-88
2024/01/18 06:27:04;;;;;;;15.70;8.00;;;;;;;-3.60;97.48;99609.38;4971214;28;20054;-88
2024/01/18 06:29:30;;;;;;;12.87;7.33;;;;;;;-3.60;97.98;99611.06;4972109;28;20030;-88
2024/01/18 06:31:56;;;;;;;19.27;9.50;;;;;;;-3.65;98.05;99616.09;4966044;28;20395;-88
2024/01/18 06:34:21;;;;;;;14.57;8.10;;;;;;;-3.64;98.64;99625.44;4965676;28;20089;-88
2024/01/18 06:36:47;;;;;;;15.83;8.70;;;;;;;-3.63;98.38;99624.59;4972398;28;20042;-89
2024/01/18 06:39:13;;;;;;;17.90;8.90;;;;;;;-3.63;99.05;99626.28;4970153;28;20038;-89
2024/01/18 06:41:39;;;;;;;14.57;8.60;;;;;;;-3.64;98.71;99635.59;4953025;28;20461;-90
2024/01/18 06:44:05;;;;;;;14.47;8.50;;;;;;;-3.64;98.56;99638.16;4970384;28;20050;-88
2024/01/18 06:46:31;;;;;;;15.33;8.10;;;;;;;-3.63;98.20;99642.38;4952909;28;20476;-88
2024/01/18 06:48:57;;;;;;;16.70;8.47;;;;;;;-3.66;99.30;99630.47;4960290;28;20078;-87
2024/01/18 06:51:25;;;;;;;14.03;7.87;;;;;;;-3.68;98.40;99638.94;4960888;28;20034;-89
2024/01/18 06:53:51;;;;;;;16.30;8.57;;;;;;;-3.72;97.81;99634.63;4964781;28;20114;-88
2024/01/18 06:56:16;;;;;;;16.07;8.60;;;;;;;-3.72;98.50;99642.25;4970968;28;20475;-89
2024/01/18 06:58:42;;;;;;;17.30;10.00;;;;;;;-3.73;98.48;99635.47;4947683;28;20066;-88
2024/01/18 07:01:10;;;;;;;18.97;9.83;;;;;;;-3.70;98.56;99640.59;4952223;28;20026;-88
2024/01/18 07:03:36;;;;;;;16.57;9.33;;;;;;;-3.70;98.89;99644.00;4970514;28;20026;-89
2024/01/18 07:06:05;;;;;;;19.40;9.83;;;;;;;-3.70;98.73;99653.31;4970505;28;20361;-88
2024/01/18 07:08:30;;;;;;;14.27;8.13;;;;;;;-3.73;98.85;99658.34;4970615;28;20065;-89
2024/01/18 07:10:57;;;;;;;14.13;8.37;;;;;;;-3.74;98.28;99665.13;4970529;28;20067;-89
2024/01/18 07:13:22;;;;;;;16.53;8.47;;;;;;;-3.77;98.06;99662.53;4970511;28;20023;-89
2024/01/18 07:15:47;;;;;;;13.07;7.80;;;;;;;-3.79;98.34;99668.44;4969612;28;20090;-89
2024/01/18 07:18:13;;;;;;;14.97;8.13;;;;;;;-3.81;97.95;99676.91;4966142;28;20102;-89
2024/01/18 07:20:38;;;;;;;14.83;8.40;;;;;;;-3.82;98.28;99674.31;4967566;28;20031;-89
2024/01/18 07:23:04;;;;;;;18.30;8.67;;;;;;;-3.83;98.53;99670.06;4952578;28;20121;-88
2024/01/18 07:25:29;;;;;;;15.50;7.67;;;;;;;-3.84;98.41;99681.94;4970276;28;20051;-88
2024/01/18 07:27:55;;;;;;;14.07;7.50;;;;;;;-3.85;98.36;99680.22;4970320;28;20496;-88
2024/01/18 07:30:21;;;;;;;16.60;7.67;;;;;;;-3.86;98.19;99687.84;4970557;28;20535;-89
2024/01/18 07:32:47;;;;;;;17.90;8.43;;;;;;;-3.90;97.29;99692.00;4952162;28;20026;-89
2024/01/18 07:35:13;;;;;;;15.50;7.67;;;;;;;-3.95;97.54;99701.25;4969735;28;20025;-88
2024/01/18 07:37:39;;;;;;;15.40;7.63;;;;;;;-4.01;97.49;99703.69;4952361;28;20042;-89
2024/01/18 07:40:06;;;;;;;15.77;8.50;;;;;;;-4.05;97.64;99707.00;4970208;28;20041;-89
2024/01/18 07:42:31;;;;;;;14.43;8.10;;;;;;;-4.10;97.46;99709.50;4969790;28;20077;-88
2024/01/18 07:44:57;;;;;;;14.03;7.53;;;;;;;-4.13;96.85;99709.44;4957829;28;20358;-88
2024/01/18 07:47:22;;;;;;;15.37;7.13;;;;;;;-4.15;97.36;99701.81;4946395;29;20074;-88
2024/01/18 07:49:48;;;;;;;14.40;7.70;;;;;;;-4.14;97.43;99710.25;4950760;29;20499;-88
2024/01/18 07:52:13;;;;;;;18.00;8.33;;;;;;;-4.13;97.60;99717.06;4950481;28;20087;-88
2024/01/18 07:54:39;;;;;;;13.97;7.80;;;;;;;-4.12;97.73;99732.34;4950240;29;20059;-88
2024/01/18 07:57:04;;;;;;;14.37;8.13;;;;;;;-4.15;97.48;99731.41;4950412;29;20419;-88
2024/01/18 07:59:30;;;;;;;16.33;8.17;;;;;;;-4.15;97.24;99736.50;4950892;29;20031;-88
2024/01/18 08:01:55;;;;;;;14.83;7.93;;;;;;;-4.13;97.58;99745.00;4950329;28;20043;-88
2024/01/18 08:04:21;;;;;;;15.80;8.03;;;;;;;-4.13;97.93;99745.88;4950678;29;20030;-87
2024/01/18 08:06:46;;;;;;;14.87;8.03;;;;;;;-4.12;97.81;99750.13;4950212;29;20059;-88
2024/01/18 08:09:12;;;;;;;14.73;7.90;;;;;;;-4.10;98.41;99757.75;4950845;29;20461;-88
2024/01/18 08:11:38;;;;;;;14.60;8.00;;;;;;;-4.08;98.49;99757.75;4951776;28;20022;-88
2024/01/18 08:14:03;;;;;;;16.40;7.77;;;;;;;-4.09;97.90;99769.63;4954365;29;20029;-87
2024/01/18 08:16:29;;;;;;;13.77;8.00;;;;;;;-4.05;98.18;99765.44;4952550;29;20035;-87
2024/01/18 08:18:55;;;;;;;15.47;7.87;;;;;;;-4.03;98.49;99766.31;4952298;29;20126;-88
2024/01/18 08:21:21;;;;;;;15.23;8.00;;;;;;;-4.00;98.12;99779.09;4936378;29;20035;-88
2024/01/18 08:23:47;;;;;;;12.67;7.43;;;;;;;-3.99;98.19;99774.00;4954065;29;20019;-88
2024/01/18 08:26:12;;;;;;;13.57;7.60;;;;;;;-3.97;98.28;99776.59;4953669;29;20038;-88
2024/01/18 08:28:38;;;;;;;14.80;8.00;;;;;;;-3.94;98.20;99774.13;4952613;29;20171;-89
2024/01/18 08:31:03;;;;;;;14.83;7.47;;;;;;;-3.88;98.36;99783.50;4935269;29;20252;-88
2024/01/18 08:33:28;;;;;;;14.30;7.53;;;;;;;-3.84;98.48;99778.50;4952169;29;20469;-88
2024/01/18 08:35:54;;;;;;;13.43;7.97;;;;;;;-3.81;98.50;99786.16;4935328;29;20066;-88
2024/01/18 08:38:20;;;;;;;14.03;7.53;;;;;;;-3.76;98.48;99791.31;4951471;29;20058;-88
2024/01/18 08:40:46;;;;;;;14.23;7.37;;;;;;;-3.71;99.13;99799.88;4934609;29;20038;-88
2024/01/18 08:43:11;;;;;;;13.37;7.53;;;;;;;-3.66;99.79;99797.41;4951511;29;20023;-88
2024/01/18 08:45:39;;;;;;;15.30;7.67;;;;;;;-3.61;99.58;99800.00;4968012;28;20047;-89
2024/01/18 08:48:04;;;;;;;13.27;7.43;;;;;;;-3.58;99.69;99803.44;4953942;28;20035;-88
2024/01/18 08:50:30;;;;;;;13.90;7.50;;;;;;;-3.54;99.53;99806.91;4971309;28;20035;-88
2024/01/18 08:52:55;;;;;;;13.47;7.50;;;;;;;-3.51;99.64;99805.25;4953270;28;20062;-88
2024/01/18 08:55:21;;;;;;;14.73;7.87;;;;;;;-3.45;100.00;99811.28;4972385;28;20031;-88
2024/01/18 08:57:47;;;;;;;11.77;6.70;;;;;;;-3.41;100.00;99808.78;4972464;28;20049;-89
2024/01/18 09:00:17;;;;;;;10.50;6.40;;;;;;;-3.34;99.65;99824.97;4973453;28;20031;-88
2024/01/18 09:02:43;;;;;;;13.47;7.27;;;;;;;-3.33;99.87;99821.59;4957524;28;20383;-88
2024/01/18 09:05:14;;;;;;;15.60;7.40;;;;;;;-3.29;100.00;99835.22;4972294;28;20073;-89
2024/01/18 09:07:40;;;;;;;12.45;6.82;;;;;;;-3.27;100.00;99831.88;4950582;28;20031;-89
2024/01/18 09:10:07;;;;;;;11.67;6.30;;;;;;;-3.20;100.00;99838.75;4974908;28;20026;-89
2024/01/18 09:12:37;;;;;;;11.10;6.63;;;;;;;-3.14;100.00;99848.16;4950194;28;20019;-94
2024/01/18 09:15:03;;;;;;;16.83;7.30;;;;;;;-3.09;100.00;99851.63;4970575;28;20464;-92
2024/01/18 09:17:29;;;;;;;15.40;6.90;;;;;;;-3.04;100.00;99849.13;4955290;28;20035;-90
2024/01/18 09:19:54;;;;;;;14.00;6.73;;;;;;;-2.99;100.00;99854.31;4951402;28;20097;-91
2024/01/18 09:22:19;;;;;;;14.77;6.63;;;;;;;-2.93;100.00;99856.91;4943652;28;20062;-91
2024/01/18 09:24:45;;;;;;;11.53;6.77;;;;;;;-2.87;100.00;99858.69;4953877;28;20031;-89
2024/01/18 09:27:11;;;;;;;12.90;6.87;;;;;;;-2.81;100.00;99863.88;4973176;28;20059;-92
2024/01/18 09:29:37;;;;;;;12.83;6.63;;;;;;;-2.76;100.00;99869.88;4951981;28;20035;-92
2024/01/18 09:32:08;;;;;;;12.70;6.80;;;;;;;-2.72;100.00;99875.84;4948278;28;20046;-91
2024/01/18 09:34:33;;;;;;;13.45;7.70;;;;;;;-2.68;100.00;99888.63;4959552;28;20019;-91
2024/01/18 09:36:59;;;;;;;12.93;7.50;;;;;;;-2.66;100.00;99884.44;4944584;28;20528;-92
2024/01/18 09:39:24;;;;;;;11.23;6.53;;;;;;;-2.62;100.00;99898.91;4963368;28;20023;-87
2024/01/18 09:41:53;;;;;;;12.03;6.17;;;;;;;-2.57;100.00;99900.66;4972164;28;20373;-94
2024/01/18 09:44:43;;;;;;;13.60;6.00;;;;;;;-2.54;100.00;99901.56;4971551;28;20043;-95
2024/01/18 09:47:08;;;;;;;14.03;6.60;;;;;;;-2.51;100.00;99908.38;4939783;28;20027;-91
2024/01/18 09:49:36;;;;;;;11.10;5.97;;;;;;;-2.47;100.00;99917.75;4954536;28;20023;-91
2024/01/18 09:52:02;;;;;;;12.07;5.97;;;;;;;-2.45;100.00;99922.03;4955928;28;20019;-86
2024/01/18 09:54:29;;;;;;;12.40;5.93;;;;;;;-2.41;100.00;99933.13;4956101;28;20015;-89
2024/01/18 09:56:59;;;;;;;8.87;5.40;;;;;;;-2.35;100.00;99938.28;4933039;29;20023;-91
2024/01/18 09:59:27;;;;;;;12.03;5.57;;;;;;;-2.30;100.00;99939.19;4950299;29;20106;-92
2024/01/18 10:01:53;;;;;;;13.20;5.37;;;;;;;-2.23;100.00;99941.84;4933987;29;20057;-86
2024/01/18 10:04:19;;;;;;;7.90;4.77;;;;;;;-2.18;100.00;99945.28;4934578;29;20015;-89
2024/01/18 10:06:45;;;;;;;8.77;4.97;;;;;;;-2.13;100.00;99953.84;4952336;29;20034;-93
2024/01/18 10:09:11;;;;;;;8.90;4.97;;;;;;;-2.06;100.00;99959.84;4949478;29;20031;-85
2024/01/18 10:11:37;;;;;;;10.57;5.63;;;;;;;-2.01;100.00;99956.53;4950453;28;20019;-87
2024/01/18 10:14:03;;;;;;;9.93;5.43;;;;;;;-1.94;100.00;99966.78;4934435;29;20448;-87
2024/01/18 10:16:30;;;;;;;10.87;5.73;;;;;;;-1.88;100.00;99969.41;4951136;29;20114;-90
2024/01/18 10:18:56;;;;;;;11.83;6.00;;;;;;;-1.83;100.00;99972.84;4951322;29;20035;-87
2024/01/18 10:21:23;;;;;;;10.57;5.37;;;;;;;-1.76;100.00;99981.41;4948074;29;20019;-89
2024/01/18 10:23:49;;;;;;;9.23;5.13;;;;;;;-1.70;100.00;99990.00;4943908;29;20122;-88
2024/01/18 10:26:16;;;;;;;8.50;5.00;;;;;;;-1.65;100.00;99990.06;4949675;29;20012;-90
2024/01/18 10:28:44;;;;;;;7.53;4.33;;;;;;;-1.59;100.00;99989.25;4948311;29;20031;-90
2024/01/18 10:31:09;;;;;;;9.17;4.70;;;;;;;-1.52;100.00;99993.56;4950068;28;20034;-91
2024/01/18 10:33:35;;;;;;;8.93;4.10;;;;;;;-1.47;100.00;100002.13;4932541;29;20028;-89
2024/01/18 10:36:00;;;;;;;9.43;4.20;;;;;;;-1.40;100.00;100001.38;4948286;29;20191;-92
2024/01/18 10:38:29;;;;;;;10.23;4.83;;;;;;;-1.33;100.00;100001.41;4948487;29;20039;-88
2024/01/18 10:40:57;;;;;;;10.53;4.20;;;;;;;-1.25;100.00;100012.56;4964741;28;20042;-88
2024/01/18 10:43:30;;;;;;;8.07;4.33;;;;;;;-1.19;100.00;100007.47;4950417;29;20023;-88
2024/01/18 10:45:55;;;;;;;7.57;3.47;;;;;;;-1.12;99.30;100009.25;4965702;28;20039;-88
2024/01/18 10:48:21;;;;;;;7.40;3.90;;;;;;;-1.04;99.91;100005.94;4969744;28;20134;-88
2024/01/18 10:50:51;;;;;;;6.03;3.20;;;;;;;-0.99;100.00;100006.78;4973737;28;20027;-90
2024/01/18 10:53:16;;;;;;;6.00;3.43;;;;;;;-0.93;99.64;100014.50;4956433;28;20035;-89
2024/01/18 10:55:42;;;;;;;6.40;3.23;;;;;;;-0.89;99.95;100011.16;4951437;28;20392;-89
2024/01/18 10:58:08;;;;;;;6.20;3.30;;;;;;;-0.84;98.86;100017.13;4968088;28;20031;-87
2024/01/18 11:00:34;;;;;;;5.67;3.03;;;;;;;-0.76;98.43;100019.72;4970242;28;20110;-87
2024/01/18 11:05:36;;;;;;;6.47;3.00;;;;;;;-0.66;98.11;100018.97;1785400;23;21194;-90
2024/01/18 11:08:05;;;;;;;6.70;2.83;;;;;;;-0.59;98.09;100024.97;4992511;28;20158;-91
2024/01/18 11:10:32;;;;;;;5.90;2.77;;;;;;;-0.54;98.62;100027.56;4990394;28;20075;-91
2024/01/18 11:12:58;;;;;;;6.47;3.10;;;;;;;-0.49;98.34;100039.50;4971795;28;20472;-91
2024/01/18 11:15:36;;;;;;;6.90;3.13;;;;;;;-0.44;98.11;100028.47;4975563;28;20035;-94
2024/01/18 11:18:09;;;;;;;4.70;2.80;;;;;;;-0.37;97.75;100041.28;4973098;28;20081;-92
2024/01/18 11:21:27;;;;;;;5.57;2.90;;;;;;;-0.32;97.61;100044.75;4978923;28;20030;-96